createdAt,value
2023-04-30T00:02:20.882Z,61.98
2023-04-30T00:04:47.965Z,61.87
2023-04-30T00:07:15.117Z,61.90
2023-04-30T00:09:42.316Z,61.89
2023-04-30T00:12:09.331Z,61.97
2023-04-30T00:14:36.273Z,62.48
2023-04-30T00:17:03.230Z,62.30
2023-04-30T00:19:30.282Z,62.56
2023-04-30T00:21:57.131Z,62.57
2023-04-30T00:24:24.081Z,62.58
2023-04-30T00:26:51.140Z,62.69
2023-04-30T00:29:18.288Z,62.79
2023-04-30T00:31:45.659Z,62.78
2023-04-30T00:34:13.009Z,62.63
2023-04-30T00:36:40.266Z,62.85
2023-04-30T00:39:07.320Z,62.83
2023-04-30T00:41:35.401Z,62.95
2023-04-30T00:44:02.551Z,62.95
2023-04-30T00:46:30.299Z,63.05
2023-04-30T00:48:57.475Z,62.88
2023-04-30T00:51:24.524Z,62.79
2023-04-30T00:53:51.684Z,63.22
2023-04-30T00:56:18.744Z,63.23
2023-04-30T00:58:45.799Z,63.31
2023-04-30T01:01:13.397Z,63.64
2023-04-30T01:03:41.980Z,63.69
2023-04-30T01:06:09.205Z,63.66
2023-04-30T01:08:36.392Z,63.76
2023-04-30T01:11:09.349Z,63.75
2023-04-30T01:13:55.125Z,63.64
2023-04-30T01:16:26.961Z,63.84
2023-04-30T01:18:54.061Z,63.72
2023-04-30T01:21:21.910Z,63.81
2023-04-30T01:24:06.359Z,63.82
2023-04-30T01:26:53.788Z,63.72
2023-04-30T01:29:21.750Z,63.70
2023-04-30T01:31:48.942Z,63.59
2023-04-30T01:34:16.174Z,63.68
2023-04-30T01:36:43.118Z,63.50
2023-04-30T01:39:10.370Z,63.58
2023-04-30T01:41:48.278Z,63.41
2023-04-30T01:44:21.469Z,63.47
2023-04-30T01:46:56.920Z,64.73
2023-04-30T01:49:36.966Z,65.16
2023-04-30T01:52:12.408Z,64.61
2023-04-30T01:55:04.025Z,64.44
2023-04-30T01:57:38.032Z,64.36
2023-04-30T02:00:05.627Z,64.20
2023-04-30T02:02:40.519Z,63.66
2023-04-30T02:05:07.888Z,63.97
2023-04-30T02:07:38.935Z,63.98
2023-04-30T02:10:07.020Z,64.10
2023-04-30T02:12:34.472Z,64.40
2023-04-30T02:15:02.770Z,63.95
2023-04-30T02:17:30.932Z,64.14
2023-04-30T02:19:58.188Z,64.38
2023-04-30T02:22:25.444Z,64.37
2023-04-30T02:24:55.479Z,64.40
2023-04-30T02:27:24.265Z,64.58
2023-04-30T02:29:51.989Z,64.46
2023-04-30T02:32:19.203Z,64.64
2023-04-30T02:34:46.243Z,64.88
2023-04-30T02:37:13.562Z,64.99
2023-04-30T02:39:41.158Z,65.01
2023-04-30T02:42:08.327Z,65.23
2023-04-30T02:44:35.370Z,65.05
2023-04-30T02:47:02.669Z,65.08
2023-04-30T02:49:29.783Z,65.03
2023-04-30T02:51:56.942Z,65.04
2023-04-30T02:54:23.990Z,65.02
2023-04-30T02:56:50.982Z,64.74
2023-04-30T02:59:17.991Z,64.99
2023-04-30T03:01:45.099Z,65.28
2023-04-30T03:04:12.102Z,65.15
2023-04-30T03:06:39.282Z,65.18
2023-04-30T03:09:06.720Z,65.35
2023-04-30T03:11:37.043Z,65.31
2023-04-30T03:14:04.618Z,65.43
2023-04-30T03:16:31.891Z,65.30
2023-04-30T03:18:59.131Z,65.31
2023-04-30T03:21:26.285Z,65.36
2023-04-30T03:23:53.237Z,65.53
2023-04-30T03:26:20.596Z,65.84
2023-04-30T03:28:47.447Z,65.74
2023-04-30T03:31:14.660Z,65.71
2023-04-30T03:33:41.587Z,65.52
2023-04-30T03:36:08.614Z,65.78
2023-04-30T03:38:35.763Z,65.71
2023-04-30T03:41:03.533Z,65.78
2023-04-30T03:43:31.011Z,66.03
2023-04-30T03:45:58.391Z,65.93
2023-04-30T03:48:25.536Z,65.91
2023-04-30T03:50:52.971Z,65.93
2023-04-30T03:53:19.921Z,65.86
2023-04-30T03:55:48.002Z,65.84
2023-04-30T03:58:15.377Z,65.72
2023-04-30T04:00:42.627Z,65.92
2023-04-30T04:03:10.282Z,65.82
2023-04-30T04:05:37.347Z,65.56
2023-04-30T04:08:05.824Z,65.63
2023-04-30T04:10:33.898Z,65.75
2023-04-30T04:13:00.859Z,65.50
2023-04-30T04:15:28.014Z,65.55
2023-04-30T04:17:55.127Z,65.40
2023-04-30T04:20:22.363Z,65.67
2023-04-30T04:22:49.478Z,65.58
2023-04-30T04:25:17.678Z,65.56
2023-04-30T04:27:44.599Z,65.67
2023-04-30T04:30:12.179Z,65.76
2023-04-30T04:32:46.014Z,65.61
2023-04-30T04:35:16.628Z,65.56
2023-04-30T04:37:43.660Z,65.42
2023-04-30T04:40:11.947Z,65.30
2023-04-30T04:42:38.899Z,65.30
2023-04-30T04:45:07.509Z,65.09
2023-04-30T04:47:34.552Z,65.04
2023-04-30T04:50:01.795Z,64.94
2023-04-30T04:52:29.047Z,64.93
2023-04-30T04:54:56.002Z,64.95
2023-04-30T04:57:23.050Z,64.72
2023-04-30T04:59:50.518Z,64.36
2023-04-30T05:02:17.472Z,64.00
2023-04-30T05:04:46.563Z,63.40
2023-04-30T05:07:13.410Z,62.68
2023-04-30T05:09:40.363Z,61.81
2023-04-30T05:12:07.431Z,61.59
2023-04-30T05:14:34.575Z,62.25
2023-04-30T05:17:01.730Z,61.68
2023-04-30T05:19:28.690Z,61.15
2023-04-30T05:21:55.731Z,60.19
2023-04-30T05:24:22.784Z,59.94
2023-04-30T05:26:50.142Z,61.17
2023-04-30T05:29:17.197Z,61.33
2023-04-30T05:31:44.357Z,60.56
2023-04-30T05:34:12.228Z,59.86
2023-04-30T05:36:39.280Z,60.44
2023-04-30T05:39:06.227Z,60.13
2023-04-30T05:41:33.283Z,60.22
2023-04-30T05:44:02.384Z,60.05
2023-04-30T05:46:31.012Z,59.56
2023-04-30T05:48:57.940Z,59.09
2023-04-30T05:51:24.837Z,59.50
2023-04-30T05:53:51.820Z,59.70
2023-04-30T05:56:18.776Z,61.64
2023-04-30T05:58:45.736Z,59.71
2023-04-30T06:01:13.291Z,58.78
2023-04-30T06:03:40.238Z,59.07
2023-04-30T06:06:07.353Z,59.39
2023-04-30T06:08:34.665Z,58.52
2023-04-30T06:11:03.549Z,58.52
2023-04-30T06:13:32.037Z,57.38
2023-04-30T06:15:59.241Z,57.92
2023-04-30T06:18:26.269Z,58.93
2023-04-30T06:20:53.302Z,59.38
2023-04-30T06:23:20.454Z,58.79
2023-04-30T06:25:47.504Z,58.02
2023-04-30T06:28:14.501Z,56.01
2023-04-30T06:30:41.429Z,56.10
2023-04-30T06:33:08.708Z,57.23
2023-04-30T06:35:35.924Z,58.35
2023-04-30T06:38:02.977Z,56.60
2023-04-30T06:40:30.128Z,55.74
2023-04-30T06:42:57.099Z,55.83
2023-04-30T06:45:24.137Z,55.58
2023-04-30T06:47:52.563Z,55.04
2023-04-30T06:50:21.212Z,55.01
2023-04-30T06:52:48.264Z,56.03
2023-04-30T06:55:15.315Z,55.82
2023-04-30T06:57:42.388Z,55.72
2023-04-30T07:00:10.242Z,55.80
2023-04-30T07:02:37.277Z,55.08
2023-04-30T07:05:04.753Z,54.88
2023-04-30T07:07:32.010Z,54.83
2023-04-30T07:09:59.065Z,55.73
2023-04-30T07:12:26.423Z,55.84
2023-04-30T07:14:53.393Z,54.74
2023-04-30T07:17:20.673Z,55.28
2023-04-30T07:19:47.684Z,54.40
2023-04-30T07:22:14.646Z,54.49
2023-04-30T07:24:41.589Z,54.83
2023-04-30T07:27:08.543Z,55.01
2023-04-30T07:29:35.415Z,54.08
2023-04-30T07:32:02.813Z,54.20
2023-04-30T07:34:29.797Z,53.80
2023-04-30T07:36:56.870Z,53.54
2023-04-30T07:39:23.869Z,54.19
2023-04-30T07:41:50.767Z,53.78
2023-04-30T07:44:18.628Z,53.71
2023-04-30T07:46:45.580Z,53.51
2023-04-30T07:49:12.557Z,53.16
2023-04-30T07:51:40.296Z,52.97
2023-04-30T07:54:07.351Z,52.59
2023-04-30T07:56:34.403Z,52.85
2023-04-30T07:59:01.252Z,52.96
2023-04-30T08:01:28.239Z,53.05
2023-04-30T08:03:55.540Z,52.98
2023-04-30T08:06:23.243Z,53.03
2023-04-30T08:08:50.558Z,52.45
2023-04-30T08:11:17.746Z,51.87
2023-04-30T08:13:44.822Z,51.15
2023-04-30T08:16:11.733Z,51.47
2023-04-30T08:18:38.606Z,51.08
2023-04-30T08:21:06.269Z,50.23
2023-04-30T08:23:33.190Z,51.00
2023-04-30T08:26:00.312Z,50.08
2023-04-30T08:28:27.382Z,49.25
2023-04-30T08:30:54.581Z,48.89
2023-04-30T08:33:21.685Z,48.05
2023-04-30T08:35:48.709Z,48.42
2023-04-30T08:38:15.698Z,48.10
2023-04-30T08:40:51.511Z,48.40
2023-04-30T08:43:19.814Z,47.88
2023-04-30T08:45:46.924Z,47.18
2023-04-30T08:48:15.884Z,45.62
2023-04-30T08:50:42.877Z,44.29
2023-04-30T08:53:10.432Z,43.80
2023-04-30T08:55:39.167Z,44.56
2023-04-30T08:58:06.529Z,44.27
2023-04-30T09:00:35.186Z,44.45
2023-04-30T09:03:02.016Z,43.13
2023-04-30T09:05:28.903Z,43.73
2023-04-30T09:08:03.058Z,43.11
2023-04-30T09:10:34.345Z,43.53
2023-04-30T09:13:04.877Z,43.19
2023-04-30T09:15:32.421Z,41.49
2023-04-30T09:18:08.564Z,41.74
2023-04-30T09:20:35.886Z,42.49
2023-04-30T09:23:07.435Z,41.84
2023-04-30T09:25:41.623Z,41.43
2023-04-30T09:28:12.115Z,41.60
2023-04-30T09:30:39.727Z,41.02
2023-04-30T09:33:09.903Z,42.01
2023-04-30T09:35:41.007Z,40.50
2023-04-30T09:38:08.267Z,40.32
2023-04-30T09:40:40.014Z,40.39
2023-04-30T09:43:07.184Z,40.03
2023-04-30T09:45:41.105Z,40.04
2023-04-30T09:48:17.573Z,38.04
2023-04-30T09:50:45.707Z,38.16
2023-04-30T09:53:13.910Z,37.30
2023-04-30T09:55:42.544Z,39.07
2023-04-30T09:58:09.858Z,38.95
2023-04-30T10:00:37.134Z,37.98
2023-04-30T10:03:08.096Z,38.69
2023-04-30T10:05:40.531Z,38.33
2023-04-30T10:08:11.640Z,37.69
2023-04-30T10:10:40.686Z,38.36
2023-04-30T10:13:10.394Z,37.73
2023-04-30T10:15:45.734Z,36.45
2023-04-30T10:18:18.920Z,37.76
2023-04-30T10:20:48.535Z,36.74
2023-04-30T10:23:15.793Z,36.58
2023-04-30T10:25:44.283Z,37.25
2023-04-30T10:28:12.153Z,37.55
2023-04-30T10:30:40.637Z,38.64
2023-04-30T10:33:28.663Z,38.39
2023-04-30T10:35:59.917Z,38.14
2023-04-30T10:38:31.680Z,37.90
2023-04-30T10:40:59.145Z,38.50
2023-04-30T10:43:26.448Z,38.59
2023-04-30T10:45:53.528Z,38.13
2023-04-30T10:48:25.466Z,38.27
2023-04-30T10:50:54.864Z,38.32
2023-04-30T10:53:22.695Z,38.40
2023-04-30T10:55:53.841Z,38.56
2023-04-30T10:58:24.604Z,39.09
2023-04-30T11:00:59.845Z,39.61
2023-04-30T11:03:28.611Z,39.98
2023-04-30T11:05:55.600Z,39.92
2023-04-30T11:08:36.019Z,39.44
2023-04-30T11:11:04.822Z,39.27
2023-04-30T11:13:43.842Z,38.79
2023-04-30T11:16:11.200Z,38.91
2023-04-30T11:18:42.041Z,38.71
2023-04-30T11:21:09.915Z,38.82
2023-04-30T11:23:40.515Z,38.87
2023-04-30T11:26:09.140Z,39.54
2023-04-30T11:28:37.316Z,39.88
2023-04-30T11:31:04.607Z,39.88
2023-04-30T11:33:32.966Z,39.41
2023-04-30T11:36:00.742Z,39.58
2023-04-30T11:38:28.902Z,39.77
2023-04-30T11:40:56.889Z,39.72
2023-04-30T11:43:27.623Z,39.92
2023-04-30T11:46:04.802Z,39.65
2023-04-30T11:48:32.890Z,39.81
2023-04-30T11:51:02.218Z,39.75
2023-04-30T11:53:29.451Z,39.46
2023-04-30T11:55:56.498Z,38.13
2023-04-30T11:58:23.452Z,39.15
2023-04-30T12:00:51.831Z,39.48
2023-04-30T12:03:18.858Z,39.36
2023-04-30T12:05:46.860Z,38.96
2023-04-30T12:08:13.911Z,39.02
2023-04-30T12:10:40.862Z,38.48
2023-04-30T12:13:07.809Z,38.65
2023-04-30T12:15:34.865Z,38.61
2023-04-30T12:18:10.666Z,38.61
2023-04-30T12:20:38.078Z,39.44
2023-04-30T12:23:05.540Z,40.23
2023-04-30T12:25:39.553Z,41.26
2023-04-30T12:28:06.610Z,40.98
2023-04-30T12:30:33.778Z,40.53
2023-04-30T12:33:03.050Z,41.06
2023-04-30T12:35:33.598Z,41.29
2023-04-30T12:38:01.680Z,41.46
2023-04-30T12:40:28.522Z,41.05
2023-04-30T12:43:05.505Z,39.84
2023-04-30T12:45:43.621Z,40.31
2023-04-30T12:48:11.400Z,40.34
2023-04-30T12:50:38.856Z,40.27
2023-04-30T12:53:07.122Z,40.19
2023-04-30T12:55:36.869Z,40.23
2023-04-30T12:58:05.739Z,40.42
2023-04-30T13:00:45.001Z,39.18
2023-04-30T13:03:12.809Z,39.33
2023-04-30T13:05:40.906Z,39.30
2023-04-30T13:08:08.983Z,39.18
2023-04-30T13:10:36.143Z,38.25
2023-04-30T13:13:02.901Z,37.45
2023-04-30T13:15:30.181Z,37.52
2023-04-30T13:17:57.389Z,37.93
2023-04-30T13:20:24.863Z,37.72
2023-04-30T13:22:52.424Z,37.17
2023-04-30T13:25:19.685Z,36.87
2023-04-30T13:27:46.760Z,36.85
2023-04-30T13:30:14.042Z,37.71
2023-04-30T13:32:42.126Z,36.40
2023-04-30T13:35:09.740Z,36.25
2023-04-30T13:37:37.307Z,36.78
2023-04-30T13:40:06.211Z,37.65
2023-04-30T13:42:33.119Z,37.05
2023-04-30T13:44:59.936Z,35.87
2023-04-30T13:47:26.878Z,35.51
2023-04-30T13:49:53.885Z,33.94
2023-04-30T13:52:21.081Z,34.02
2023-04-30T13:54:48.220Z,36.40
2023-04-30T13:57:15.265Z,37.95
2023-04-30T13:59:42.235Z,39.46
2023-04-30T14:02:09.373Z,40.36
2023-04-30T14:04:37.815Z,41.97
2023-04-30T14:07:04.918Z,42.42
2023-04-30T14:09:31.866Z,42.31
2023-04-30T14:11:59.147Z,40.98
2023-04-30T14:14:26.587Z,38.82
2023-04-30T14:16:53.941Z,36.49
2023-04-30T14:19:24.661Z,36.36
2023-04-30T14:21:51.636Z,36.33
2023-04-30T14:24:19.606Z,36.53
2023-04-30T14:26:46.564Z,35.80
2023-04-30T14:29:13.518Z,36.38
2023-04-30T14:31:40.499Z,35.94
2023-04-30T14:34:07.624Z,36.20
2023-04-30T14:36:35.802Z,36.51
2023-04-30T14:39:04.281Z,35.13
2023-04-30T14:41:35.562Z,35.10
2023-04-30T14:44:03.195Z,34.59
2023-04-30T14:46:30.703Z,33.93
2023-04-30T14:48:57.714Z,34.13
2023-04-30T14:51:25.016Z,35.65
2023-04-30T14:53:51.824Z,34.39
2023-04-30T14:56:18.776Z,35.39
2023-04-30T14:58:45.727Z,35.79
2023-04-30T15:01:13.037Z,35.64
2023-04-30T15:03:40.208Z,35.84
2023-04-30T15:06:07.339Z,35.23
2023-04-30T15:08:34.444Z,35.12
2023-04-30T15:11:02.163Z,35.77
2023-04-30T15:13:29.068Z,35.66
2023-04-30T15:15:56.285Z,35.80
2023-04-30T15:18:23.245Z,36.22
2023-04-30T15:20:50.327Z,36.60
2023-04-30T15:23:17.390Z,36.25
2023-04-30T15:25:44.439Z,36.08
2023-04-30T15:28:11.392Z,36.54
2023-04-30T15:30:38.770Z,37.03
2023-04-30T15:33:05.761Z,37.61
2023-04-30T15:35:32.954Z,37.27
2023-04-30T15:38:00.003Z,37.45
2023-04-30T15:40:26.957Z,37.29
2023-04-30T15:42:54.011Z,37.41
2023-04-30T15:45:21.165Z,37.65
2023-04-30T15:47:48.325Z,37.84
2023-04-30T15:50:15.211Z,37.63
2023-04-30T15:52:42.020Z,37.79
2023-04-30T15:55:09.201Z,38.18
2023-04-30T15:57:36.328Z,38.80
2023-04-30T16:00:04.544Z,38.87
2023-04-30T16:02:38.880Z,39.00
2023-04-30T16:05:06.195Z,39.48
2023-04-30T16:07:33.649Z,40.00
2023-04-30T16:10:01.249Z,40.61
2023-04-30T16:12:28.372Z,39.91
2023-04-30T16:14:55.323Z,39.39
2023-04-30T16:17:23.882Z,39.34
2023-04-30T16:19:50.759Z,39.37
2023-04-30T16:22:18.022Z,39.62
2023-04-30T16:24:45.275Z,40.18
2023-04-30T16:27:12.262Z,40.29
2023-04-30T16:29:39.279Z,40.45
2023-04-30T16:32:06.471Z,40.52
2023-04-30T16:34:33.692Z,40.39
2023-04-30T16:37:00.639Z,40.36
2023-04-30T16:39:27.586Z,40.47
2023-04-30T16:41:54.755Z,40.56
2023-04-30T16:44:22.106Z,40.83
2023-04-30T16:46:49.188Z,41.04
2023-04-30T16:49:16.228Z,41.22
2023-04-30T16:51:42.994Z,41.16
2023-04-30T16:54:10.219Z,41.40
2023-04-30T16:56:37.174Z,41.26
2023-04-30T16:59:04.328Z,41.32
2023-04-30T17:01:31.722Z,41.43
2023-04-30T17:03:58.784Z,41.61
2023-04-30T17:06:26.016Z,41.74
2023-04-30T17:08:53.867Z,41.79
2023-04-30T17:11:22.760Z,41.83
2023-04-30T17:13:49.713Z,41.81
2023-04-30T17:16:16.714Z,42.08
2023-04-30T17:18:43.819Z,42.57
2023-04-30T17:21:10.866Z,42.68
2023-04-30T17:23:37.824Z,42.86
2023-04-30T17:26:05.189Z,42.97
2023-04-30T17:28:32.442Z,43.42
2023-04-30T17:31:03.461Z,43.16
2023-04-30T17:33:30.435Z,43.30
2023-04-30T17:35:58.142Z,43.46
2023-04-30T17:38:25.360Z,43.90
2023-04-30T17:40:53.337Z,44.14
2023-04-30T17:43:20.405Z,44.25
2023-04-30T17:45:47.589Z,44.58
2023-04-30T17:48:14.600Z,44.17
2023-04-30T17:50:41.655Z,44.30
2023-04-30T17:53:08.707Z,44.61
2023-04-30T17:55:35.760Z,44.91
2023-04-30T17:58:03.638Z,45.32
2023-04-30T18:00:31.005Z,44.85
2023-04-30T18:02:58.051Z,45.34
2023-04-30T18:05:25.127Z,45.55
2023-04-30T18:07:52.153Z,45.96
2023-04-30T18:10:19.107Z,45.79
2023-04-30T18:12:46.565Z,46.01
2023-04-30T18:15:14.649Z,46.33
2023-04-30T18:17:42.065Z,46.10
2023-04-30T18:20:11.394Z,46.53
2023-04-30T18:22:42.771Z,46.59
2023-04-30T18:25:10.839Z,46.83
2023-04-30T18:27:37.896Z,47.29
2023-04-30T18:30:06.686Z,47.68
2023-04-30T18:32:33.564Z,47.86
2023-04-30T18:35:02.453Z,47.98
2023-04-30T18:37:29.684Z,47.86
2023-04-30T18:39:57.357Z,48.14
2023-04-30T18:42:24.708Z,48.25
2023-04-30T18:44:51.661Z,48.81
2023-04-30T18:47:18.719Z,49.08
2023-04-30T18:49:45.771Z,49.34
2023-04-30T18:52:12.826Z,49.60
2023-04-30T18:54:40.894Z,50.32
2023-04-30T18:57:10.527Z,50.74
2023-04-30T18:59:38.991Z,51.08
2023-04-30T19:02:05.969Z,51.31
2023-04-30T19:04:33.208Z,51.73
2023-04-30T19:07:00.263Z,52.12
2023-04-30T19:09:27.314Z,52.38
2023-04-30T19:11:54.260Z,52.50
2023-04-30T19:14:21.314Z,52.87
2023-04-30T19:16:48.324Z,53.08
2023-04-30T19:19:15.625Z,53.37
2023-04-30T19:21:43.400Z,53.43
2023-04-30T19:24:10.873Z,53.99
2023-04-30T19:27:10.772Z,53.99
2023-04-30T19:29:40.206Z,54.31
2023-04-30T19:32:07.340Z,54.12
2023-04-30T19:34:34.525Z,55.82
2023-04-30T19:37:01.537Z,57.90
2023-04-30T19:39:29.507Z,55.56
2023-04-30T19:41:56.661Z,55.98
2023-04-30T19:44:23.712Z,56.53
2023-04-30T19:46:51.088Z,57.72
2023-04-30T19:49:18.136Z,57.53
2023-04-30T19:51:45.186Z,57.77
2023-04-30T19:54:13.773Z,57.57
2023-04-30T19:56:44.531Z,57.73
2023-04-30T19:59:12.182Z,57.82
2023-04-30T20:01:39.586Z,57.82
2023-04-30T20:04:07.075Z,57.93
2023-04-30T20:06:34.186Z,58.04
2023-04-30T20:09:01.630Z,58.16
2023-04-30T20:11:28.674Z,58.20
2023-04-30T20:13:55.927Z,58.23
2023-04-30T20:16:23.032Z,58.42
2023-04-30T20:18:50.140Z,58.65
2023-04-30T20:21:19.295Z,58.80
2023-04-30T20:23:47.628Z,59.02
2023-04-30T20:26:14.584Z,59.22
2023-04-30T20:28:41.526Z,59.17
2023-04-30T20:31:09.187Z,59.30
2023-04-30T20:33:36.443Z,59.31
2023-04-30T20:36:03.605Z,60.30
2023-04-30T20:38:30.551Z,60.10
2023-04-30T20:40:58.389Z,60.03
2023-04-30T20:43:25.309Z,60.06
2023-04-30T20:45:55.836Z,60.47
2023-04-30T20:48:22.773Z,60.27
2023-04-30T20:50:50.117Z,60.70
2023-04-30T20:53:17.584Z,60.65
2023-04-30T20:55:44.532Z,60.74
2023-04-30T20:58:11.491Z,61.04
2023-04-30T21:00:38.334Z,61.58
2023-04-30T21:03:05.675Z,61.38
2023-04-30T21:05:33.873Z,61.30
2023-04-30T21:08:01.407Z,61.85
2023-04-30T21:10:34.732Z,61.55
2023-04-30T21:13:03.117Z,61.51
2023-04-30T21:15:30.683Z,60.39
2023-04-30T21:18:00.511Z,61.08
2023-04-30T21:20:28.085Z,61.57
2023-04-30T21:22:56.142Z,61.58
2023-04-30T21:25:23.102Z,61.88
2023-04-30T21:27:50.170Z,59.47
2023-04-30T21:30:17.112Z,59.33
2023-04-30T21:32:47.645Z,60.93
2023-04-30T21:35:14.990Z,61.38
2023-04-30T21:37:42.086Z,61.68
2023-04-30T21:40:09.406Z,62.33
2023-04-30T21:42:36.263Z,61.88
2023-04-30T21:45:04.332Z,61.95
2023-04-30T21:47:31.430Z,62.10
2023-04-30T21:49:58.583Z,62.60
2023-04-30T21:52:25.813Z,62.58
2023-04-30T21:54:52.743Z,62.51
2023-04-30T21:57:19.792Z,62.51
2023-04-30T21:59:46.741Z,62.75
2023-04-30T22:02:23.365Z,63.05
2023-04-30T22:04:52.824Z,63.30
2023-04-30T22:07:19.699Z,62.27
2023-04-30T22:09:47.233Z,62.76
2023-04-30T22:12:15.002Z,59.65
2023-04-30T22:14:41.951Z,59.83
2023-04-30T22:17:08.780Z,62.40
2023-04-30T22:19:35.756Z,62.34
2023-04-30T22:22:02.702Z,62.58
2023-04-30T22:24:30.266Z,62.93
2023-04-30T22:26:57.319Z,63.58
2023-04-30T22:29:24.370Z,63.92
2023-04-30T22:31:51.459Z,64.16
2023-04-30T22:34:22.515Z,64.40
2023-04-30T22:36:50.033Z,64.65
2023-04-30T22:39:17.090Z,64.67
2023-04-30T22:41:46.922Z,65.19
2023-04-30T22:44:14.486Z,65.05
2023-04-30T22:46:45.712Z,64.77
2023-04-30T22:49:29.984Z,64.89
2023-04-30T22:51:58.148Z,65.43
2023-04-30T22:54:25.232Z,65.22
2023-04-30T22:56:52.308Z,65.04
2023-04-30T22:59:19.632Z,64.12
2023-04-30T23:01:47.069Z,64.07
2023-04-30T23:04:13.988Z,64.82
2023-04-30T23:06:42.384Z,65.57
2023-04-30T23:09:09.671Z,65.43
2023-04-30T23:11:36.719Z,65.42
2023-04-30T23:14:04.282Z,65.65
2023-04-30T23:16:31.407Z,65.93
2023-04-30T23:18:58.715Z,66.57
2023-04-30T23:21:26.363Z,66.27
2023-04-30T23:23:53.525Z,66.25
2023-04-30T23:26:20.980Z,65.96
2023-04-30T23:28:47.931Z,66.65
2023-04-30T23:31:14.986Z,66.68
2023-04-30T23:33:42.037Z,66.78
2023-04-30T23:36:09.194Z,66.69
2023-04-30T23:38:36.662Z,66.77
2023-04-30T23:41:03.528Z,66.74
2023-04-30T23:43:31.176Z,66.93
2023-04-30T23:45:59.188Z,66.62
2023-04-30T23:48:26.410Z,66.30
2023-04-30T23:51:03.279Z,66.70
2023-04-30T23:53:30.747Z,67.15
2023-04-30T23:55:58.181Z,67.35
2023-04-30T23:58:25.567Z,66.52
